sensor_id;sensor_type;location;lat;lon;timestamp;temperature;humidity
53268;DHT22;39156;51.176;6.738;2022-07-23T00:00:53;18.00;65.10
53268;DHT22;39156;51.176;6.738;2022-07-23T00:03:19;18.00;65.30
53268;DHT22;39156;51.176;6.738;2022-07-23T00:05:45;18.00;65.60
53268;DHT22;39156;51.176;6.738;2022-07-23T00:08:11;18.00;65.80
53268;DHT22;39156;51.176;6.738;2022-07-23T00:10:37;17.90;66.00
53268;DHT22;39156;51.176;6.738;2022-07-23T00:13:03;17.90;66.20
53268;DHT22;39156;51.176;6.738;2022-07-23T00:15:29;17.90;66.30
53268;DHT22;39156;51.176;6.738;2022-07-23T00:17:54;18.00;66.20
53268;DHT22;39156;51.176;6.738;2022-07-23T00:20:20;18.00;66.40
53268;DHT22;39156;51.176;6.738;2022-07-23T00:22:50;18.00;66.30
53268;DHT22;39156;51.176;6.738;2022-07-23T00:25:18;18.00;66.60
53268;DHT22;39156;51.176;6.738;2022-07-23T00:27:45;17.90;66.40
53268;DHT22;39156;51.176;6.738;2022-07-23T00:30:11;18.00;66.60
53268;DHT22;39156;51.176;6.738;2022-07-23T00:32:51;18.00;66.90
53268;DHT22;39156;51.176;6.738;2022-07-23T00:35:20;18.00;67.70
53268;DHT22;39156;51.176;6.738;2022-07-23T00:37:46;18.00;67.30
53268;DHT22;39156;51.176;6.738;2022-07-23T00:40:12;18.00;67.70
53268;DHT22;39156;51.176;6.738;2022-07-23T00:42:39;18.00;67.40
53268;DHT22;39156;51.176;6.738;2022-07-23T00:45:06;18.00;67.10
53268;DHT22;39156;51.176;6.738;2022-07-23T00:47:32;18.00;67.00
53268;DHT22;39156;51.176;6.738;2022-07-23T00:49:58;18.00;67.10
53268;DHT22;39156;51.176;6.738;2022-07-23T00:52:25;18.10;67.50
53268;DHT22;39156;51.176;6.738;2022-07-23T00:54:51;18.10;66.90
53268;DHT22;39156;51.176;6.738;2022-07-23T00:57:17;18.10;66.90
53268;DHT22;39156;51.176;6.738;2022-07-23T00:59:43;18.10;66.60
53268;DHT22;39156;51.176;6.738;2022-07-23T01:02:09;18.10;66.90
53268;DHT22;39156;51.176;6.738;2022-07-23T01:04:35;18.10;67.10
53268;DHT22;39156;51.176;6.738;2022-07-23T01:07:01;18.10;67.70
53268;DHT22;39156;51.176;6.738;2022-07-23T01:09:27;18.00;68.00
53268;DHT22;39156;51.176;6.738;2022-07-23T01:11:54;18.00;68.20
53268;DHT22;39156;51.176;6.738;2022-07-23T01:14:20;18.00;68.40
53268;DHT22;39156;51.176;6.738;2022-07-23T01:16:48;18.00;68.40
53268;DHT22;39156;51.176;6.738;2022-07-23T01:19:15;18.00;68.40
53268;DHT22;39156;51.176;6.738;2022-07-23T01:21:44;18.00;68.40
53268;DHT22;39156;51.176;6.738;2022-07-23T01:24:12;17.90;68.80
53268;DHT22;39156;51.176;6.738;2022-07-23T01:26:44;17.90;68.80
53268;DHT22;39156;51.176;6.738;2022-07-23T01:29:11;17.90;68.90
53268;DHT22;39156;51.176;6.738;2022-07-23T01:31:37;17.90;68.60
53268;DHT22;39156;51.176;6.738;2022-07-23T01:34:03;17.90;68.80
53268;DHT22;39156;51.176;6.738;2022-07-23T01:36:30;17.90;68.80
53268;DHT22;39156;51.176;6.738;2022-07-23T01:38:55;17.90;69.00
53268;DHT22;39156;51.176;6.738;2022-07-23T01:41:21;17.80;69.20
53268;DHT22;39156;51.176;6.738;2022-07-23T01:43:47;17.80;69.20
53268;DHT22;39156;51.176;6.738;2022-07-23T01:46:13;17.80;69.30
53268;DHT22;39156;51.176;6.738;2022-07-23T01:48:39;17.80;69.30
53268;DHT22;39156;51.176;6.738;2022-07-23T01:51:05;17.70;69.30
53268;DHT22;39156;51.176;6.738;2022-07-23T01:53:31;17.70;69.50
53268;DHT22;39156;51.176;6.738;2022-07-23T01:55:58;17.70;69.30
53268;DHT22;39156;51.176;6.738;2022-07-23T01:58:25;17.70;69.60
53268;DHT22;39156;51.176;6.738;2022-07-23T02:00:51;17.70;69.60
53268;DHT22;39156;51.176;6.738;2022-07-23T02:03:17;17.70;69.40
53268;DHT22;39156;51.176;6.738;2022-07-23T02:05:43;17.70;69.20
53268;DHT22;39156;51.176;6.738;2022-07-23T02:08:09;17.60;69.50
53268;DHT22;39156;51.176;6.738;2022-07-23T02:10:34;17.60;69.40
53268;DHT22;39156;51.176;6.738;2022-07-23T02:13:00;17.50;69.50
53268;DHT22;39156;51.176;6.738;2022-07-23T02:15:26;17.50;69.50
53268;DHT22;39156;51.176;6.738;2022-07-23T02:17:52;17.50;69.70
53268;DHT22;39156;51.176;6.738;2022-07-23T02:20:17;17.50;69.80
53268;DHT22;39156;51.176;6.738;2022-07-23T02:22:44;17.40;69.90
53268;DHT22;39156;51.176;6.738;2022-07-23T02:25:09;17.40;70.00
53268;DHT22;39156;51.176;6.738;2022-07-23T02:27:36;17.40;69.80
53268;DHT22;39156;51.176;6.738;2022-07-23T02:30:02;17.40;70.00
53268;DHT22;39156;51.176;6.738;2022-07-23T02:32:28;17.40;70.00
53268;DHT22;39156;51.176;6.738;2022-07-23T02:34:54;17.30;69.80
53268;DHT22;39156;51.176;6.738;2022-07-23T02:37:19;17.30;70.10
53268;DHT22;39156;51.176;6.738;2022-07-23T02:39:45;17.30;70.20
53268;DHT22;39156;51.176;6.738;2022-07-23T02:42:11;17.30;70.20
53268;DHT22;39156;51.176;6.738;2022-07-23T02:44:36;17.30;70.40
53268;DHT22;39156;51.176;6.738;2022-07-23T02:47:02;17.20;70.40
53268;DHT22;39156;51.176;6.738;2022-07-23T02:49:28;17.20;70.50
53268;DHT22;39156;51.176;6.738;2022-07-23T02:51:54;17.20;70.60
53268;DHT22;39156;51.176;6.738;2022-07-23T02:54:19;17.20;70.60
53268;DHT22;39156;51.176;6.738;2022-07-23T02:56:45;17.20;70.50
53268;DHT22;39156;51.176;6.738;2022-07-23T02:59:11;17.20;70.60
53268;DHT22;39156;51.176;6.738;2022-07-23T03:01:37;17.20;70.50
53268;DHT22;39156;51.176;6.738;2022-07-23T03:04:03;17.20;70.40
53268;DHT22;39156;51.176;6.738;2022-07-23T03:06:28;17.20;70.30
53268;DHT22;39156;51.176;6.738;2022-07-23T03:08:54;17.10;70.30
53268;DHT22;39156;51.176;6.738;2022-07-23T03:11:20;17.10;70.20
53268;DHT22;39156;51.176;6.738;2022-07-23T03:13:46;17.10;70.30
53268;DHT22;39156;51.176;6.738;2022-07-23T03:16:11;17.10;70.20
53268;DHT22;39156;51.176;6.738;2022-07-23T03:18:37;17.10;70.10
53268;DHT22;39156;51.176;6.738;2022-07-23T03:21:03;17.00;70.10
53268;DHT22;39156;51.176;6.738;2022-07-23T03:23:29;17.00;70.30
53268;DHT22;39156;51.176;6.738;2022-07-23T03:25:55;17.00;70.30
53268;DHT22;39156;51.176;6.738;2022-07-23T03:28:20;17.00;70.20
53268;DHT22;39156;51.176;6.738;2022-07-23T03:30:47;16.90;70.20
53268;DHT22;39156;51.176;6.738;2022-07-23T03:33:14;16.90;70.10
53268;DHT22;39156;51.176;6.738;2022-07-23T03:35:42;16.90;70.10
53268;DHT22;39156;51.176;6.738;2022-07-23T03:38:08;16.80;70.20
53268;DHT22;39156;51.176;6.738;2022-07-23T03:40:34;16.80;70.40
53268;DHT22;39156;51.176;6.738;2022-07-23T03:43:00;16.80;70.60
53268;DHT22;39156;51.176;6.738;2022-07-23T03:45:26;16.80;70.70
53268;DHT22;39156;51.176;6.738;2022-07-23T03:47:51;16.80;70.80
53268;DHT22;39156;51.176;6.738;2022-07-23T03:50:17;16.70;70.70
53268;DHT22;39156;51.176;6.738;2022-07-23T03:52:43;16.70;71.00
53268;DHT22;39156;51.176;6.738;2022-07-23T03:55:09;16.70;71.10
53268;DHT22;39156;51.176;6.738;2022-07-23T03:57:34;16.70;71.20
53268;DHT22;39156;51.176;6.738;2022-07-23T04:00:01;16.60;70.90
53268;DHT22;39156;51.176;6.738;2022-07-23T04:02:27;16.60;70.90
53268;DHT22;39156;51.176;6.738;2022-07-23T04:04:53;16.60;71.00
53268;DHT22;39156;51.176;6.738;2022-07-23T04:07:19;16.60;71.10
53268;DHT22;39156;51.176;6.738;2022-07-23T04:09:45;16.60;71.30
53268;DHT22;39156;51.176;6.738;2022-07-23T04:12:10;16.60;71.50
53268;DHT22;39156;51.176;6.738;2022-07-23T04:14:36;16.60;71.60
53268;DHT22;39156;51.176;6.738;2022-07-23T04:17:02;16.60;71.60
53268;DHT22;39156;51.176;6.738;2022-07-23T04:19:28;16.60;71.50
53268;DHT22;39156;51.176;6.738;2022-07-23T04:21:56;16.60;71.20
53268;DHT22;39156;51.176;6.738;2022-07-23T04:24:22;16.60;71.20
53268;DHT22;39156;51.176;6.738;2022-07-23T04:26:48;16.70;71.30
53268;DHT22;39156;51.176;6.738;2022-07-23T04:29:13;16.70;71.30
53268;DHT22;39156;51.176;6.738;2022-07-23T04:31:39;16.60;71.40
53268;DHT22;39156;51.176;6.738;2022-07-23T04:34:05;16.60;71.50
53268;DHT22;39156;51.176;6.738;2022-07-23T04:36:30;16.60;71.80
53268;DHT22;39156;51.176;6.738;2022-07-23T04:38:56;16.70;72.30
53268;DHT22;39156;51.176;6.738;2022-07-23T04:41:22;16.80;72.60
53268;DHT22;39156;51.176;6.738;2022-07-23T04:43:47;16.90;72.70
53268;DHT22;39156;51.176;6.738;2022-07-23T04:46:13;17.20;72.70
53268;DHT22;39156;51.176;6.738;2022-07-23T04:48:39;17.30;72.40
53268;DHT22;39156;51.176;6.738;2022-07-23T04:51:05;17.60;72.10
53268;DHT22;39156;51.176;6.738;2022-07-23T04:53:31;17.80;71.70
53268;DHT22;39156;51.176;6.738;2022-07-23T04:55:57;18.10;71.60
53268;DHT22;39156;51.176;6.738;2022-07-23T04:58:22;18.40;71.30
53268;DHT22;39156;51.176;6.738;2022-07-23T05:00:48;18.70;71.00
53268;DHT22;39156;51.176;6.738;2022-07-23T05:03:14;18.90;70.70
53268;DHT22;39156;51.176;6.738;2022-07-23T05:05:40;19.20;70.30
53268;DHT22;39156;51.176;6.738;2022-07-23T05:08:06;19.50;69.40
53268;DHT22;39156;51.176;6.738;2022-07-23T05:10:32;19.80;68.80
53268;DHT22;39156;51.176;6.738;2022-07-23T05:12:58;20.10;67.90
53268;DHT22;39156;51.176;6.738;2022-07-23T05:15:24;20.30;67.20
53268;DHT22;39156;51.176;6.738;2022-07-23T05:17:49;20.50;66.90
53268;DHT22;39156;51.176;6.738;2022-07-23T05:20:15;20.70;66.20
53268;DHT22;39156;51.176;6.738;2022-07-23T05:22:41;20.80;65.50
53268;DHT22;39156;51.176;6.738;2022-07-23T05:25:07;21.00;65.20
53268;DHT22;39156;51.176;6.738;2022-07-23T05:27:33;21.10;64.80
53268;DHT22;39156;51.176;6.738;2022-07-23T05:29:59;21.30;64.80
53268;DHT22;39156;51.176;6.738;2022-07-23T05:32:25;21.50;64.70
53268;DHT22;39156;51.176;6.738;2022-07-23T05:34:50;21.80;64.60
53268;DHT22;39156;51.176;6.738;2022-07-23T05:37:16;22.00;64.40
53268;DHT22;39156;51.176;6.738;2022-07-23T05:39:42;22.30;63.90
53268;DHT22;39156;51.176;6.738;2022-07-23T05:42:08;22.60;63.30
53268;DHT22;39156;51.176;6.738;2022-07-23T05:44:34;22.90;62.90
53268;DHT22;39156;51.176;6.738;2022-07-23T05:46:59;23.20;62.20
53268;DHT22;39156;51.176;6.738;2022-07-23T05:49:25;23.50;61.80
53268;DHT22;39156;51.176;6.738;2022-07-23T05:51:51;23.70;60.70
53268;DHT22;39156;51.176;6.738;2022-07-23T05:54:17;24.00;60.10
53268;DHT22;39156;51.176;6.738;2022-07-23T05:56:43;24.10;59.20
53268;DHT22;39156;51.176;6.738;2022-07-23T05:59:08;24.20;58.40
53268;DHT22;39156;51.176;6.738;2022-07-23T06:01:34;24.20;57.50
53268;DHT22;39156;51.176;6.738;2022-07-23T06:04:00;24.30;57.00
53268;DHT22;39156;51.176;6.738;2022-07-23T06:06:26;24.30;56.90
53268;DHT22;39156;51.176;6.738;2022-07-23T06:08:51;24.30;56.80
53268;DHT22;39156;51.176;6.738;2022-07-23T06:11:17;24.40;56.80
53268;DHT22;39156;51.176;6.738;2022-07-23T06:13:43;24.50;56.20
53268;DHT22;39156;51.176;6.738;2022-07-23T06:16:09;24.60;55.90
53268;DHT22;39156;51.176;6.738;2022-07-23T06:18:34;24.70;55.80
53268;DHT22;39156;51.176;6.738;2022-07-23T06:21:00;24.80;55.00
53268;DHT22;39156;51.176;6.738;2022-07-23T06:23:26;24.90;55.50
53268;DHT22;39156;51.176;6.738;2022-07-23T06:25:51;25.00;55.80
53268;DHT22;39156;51.176;6.738;2022-07-23T06:28:17;25.20;56.00
53268;DHT22;39156;51.176;6.738;2022-07-23T06:30:43;25.30;55.50
53268;DHT22;39156;51.176;6.738;2022-07-23T06:33:08;25.60;58.00
53268;DHT22;39156;51.176;6.738;2022-07-23T06:35:35;25.90;55.60
53268;DHT22;39156;51.176;6.738;2022-07-23T06:38:00;26.10;55.10
53268;DHT22;39156;51.176;6.738;2022-07-23T06:40:26;26.30;54.50
53268;DHT22;39156;51.176;6.738;2022-07-23T06:42:52;26.60;54.30
53268;DHT22;39156;51.176;6.738;2022-07-23T06:45:17;27.00;53.70
53268;DHT22;39156;51.176;6.738;2022-07-23T06:47:43;27.40;53.10
53268;DHT22;39156;51.176;6.738;2022-07-23T06:50:09;27.70;52.70
53268;DHT22;39156;51.176;6.738;2022-07-23T06:52:35;28.00;51.30
53268;DHT22;39156;51.176;6.738;2022-07-23T06:55:01;28.30;50.40
53268;DHT22;39156;51.176;6.738;2022-07-23T06:57:27;28.60;50.10
53268;DHT22;39156;51.176;6.738;2022-07-23T06:59:53;28.80;49.80
53268;DHT22;39156;51.176;6.738;2022-07-23T07:02:18;29.00;48.90
53268;DHT22;39156;51.176;6.738;2022-07-23T07:04:44;29.20;48.30
53268;DHT22;39156;51.176;6.738;2022-07-23T07:07:10;29.30;47.70
53268;DHT22;39156;51.176;6.738;2022-07-23T07:09:37;29.40;47.20
53268;DHT22;39156;51.176;6.738;2022-07-23T07:12:03;29.60;47.50
53268;DHT22;39156;51.176;6.738;2022-07-23T07:14:29;29.80;47.10
53268;DHT22;39156;51.176;6.738;2022-07-23T07:16:55;29.90;46.60
53268;DHT22;39156;51.176;6.738;2022-07-23T07:19:22;30.20;46.30
53268;DHT22;39156;51.176;6.738;2022-07-23T07:21:47;30.40;45.30
53268;DHT22;39156;51.176;6.738;2022-07-23T07:24:13;30.70;45.60
53268;DHT22;39156;51.176;6.738;2022-07-23T07:26:39;31.00;44.80
53268;DHT22;39156;51.176;6.738;2022-07-23T07:29:05;31.20;44.40
53268;DHT22;39156;51.176;6.738;2022-07-23T07:31:31;31.50;44.00
53268;DHT22;39156;51.176;6.738;2022-07-23T07:33:58;31.80;43.50
53268;DHT22;39156;51.176;6.738;2022-07-23T07:36:23;32.00;43.00
53268;DHT22;39156;51.176;6.738;2022-07-23T07:38:49;32.20;42.60
53268;DHT22;39156;51.176;6.738;2022-07-23T07:41:15;32.30;41.90
53268;DHT22;39156;51.176;6.738;2022-07-23T07:43:41;32.40;41.30
53268;DHT22;39156;51.176;6.738;2022-07-23T07:46:07;32.50;40.80
53268;DHT22;39156;51.176;6.738;2022-07-23T07:48:36;32.40;40.10
53268;DHT22;39156;51.176;6.738;2022-07-23T07:51:04;32.40;40.30
53268;DHT22;39156;51.176;6.738;2022-07-23T07:53:30;32.30;39.50
53268;DHT22;39156;51.176;6.738;2022-07-23T07:55:55;32.10;39.40
53268;DHT22;39156;51.176;6.738;2022-07-23T07:58:21;31.80;39.20
53268;DHT22;39156;51.176;6.738;2022-07-23T08:00:47;31.60;39.40
53268;DHT22;39156;51.176;6.738;2022-07-23T08:03:12;31.30;39.80
53268;DHT22;39156;51.176;6.738;2022-07-23T08:05:38;31.20;39.90
53268;DHT22;39156;51.176;6.738;2022-07-23T08:08:04;31.10;40.30
53268;DHT22;39156;51.176;6.738;2022-07-23T08:10:30;31.10;40.00
53268;DHT22;39156;51.176;6.738;2022-07-23T08:12:57;31.00;39.80
53268;DHT22;39156;51.176;6.738;2022-07-23T08:15:25;31.00;39.80
53268;DHT22;39156;51.176;6.738;2022-07-23T08:17:52;31.10;39.50
53268;DHT22;39156;51.176;6.738;2022-07-23T08:20:20;31.00;39.60
53268;DHT22;39156;51.176;6.738;2022-07-23T08:22:51;31.00;39.70
53268;DHT22;39156;51.176;6.738;2022-07-23T08:25:28;31.00;39.70
53268;DHT22;39156;51.176;6.738;2022-07-23T08:27:56;31.00;39.70
53268;DHT22;39156;51.176;6.738;2022-07-23T08:30:23;31.00;40.00
53268;DHT22;39156;51.176;6.738;2022-07-23T08:33:09;31.10;39.70
53268;DHT22;39156;51.176;6.738;2022-07-23T08:35:47;31.10;39.60
53268;DHT22;39156;51.176;6.738;2022-07-23T08:38:17;31.30;39.70
53268;DHT22;39156;51.176;6.738;2022-07-23T08:40:46;31.50;40.20
53268;DHT22;39156;51.176;6.738;2022-07-23T08:43:23;31.70;39.80
53268;DHT22;39156;51.176;6.738;2022-07-23T08:45:52;31.90;39.10
53268;DHT22;39156;51.176;6.738;2022-07-23T08:48:23;32.10;37.70
53268;DHT22;39156;51.176;6.738;2022-07-23T08:50:56;32.30;37.60
53268;DHT22;39156;51.176;6.738;2022-07-23T08:53:23;32.30;36.80
53268;DHT22;39156;51.176;6.738;2022-07-23T08:55:53;32.30;36.90
53268;DHT22;39156;51.176;6.738;2022-07-23T08:58:21;32.30;36.60
53268;DHT22;39156;51.176;6.738;2022-07-23T09:00:48;32.20;36.50
53268;DHT22;39156;51.176;6.738;2022-07-23T09:05:44;32.10;36.50
53268;DHT22;39156;51.176;6.738;2022-07-23T09:08:20;32.00;36.70
53268;DHT22;39156;51.176;6.738;2022-07-23T09:10:58;31.80;36.70
53268;DHT22;39156;51.176;6.738;2022-07-23T09:13:38;31.80;37.20
53268;DHT22;39156;51.176;6.738;2022-07-23T09:16:25;31.80;37.10
53268;DHT22;39156;51.176;6.738;2022-07-23T09:18:56;31.80;36.50
53268;DHT22;39156;51.176;6.738;2022-07-23T09:21:27;31.80;36.30
53268;DHT22;39156;51.176;6.738;2022-07-23T09:34:21;31.90;35.90
53268;DHT22;39156;51.176;6.738;2022-07-23T09:36:54;32.00;36.30
53268;DHT22;39156;51.176;6.738;2022-07-23T09:39:33;32.00;35.60
53268;DHT22;39156;51.176;6.738;2022-07-23T09:44:47;32.00;36.60
53268;DHT22;39156;51.176;6.738;2022-07-23T09:47:15;32.00;35.00
53268;DHT22;39156;51.176;6.738;2022-07-23T09:50:09;31.90;35.20
53268;DHT22;39156;51.176;6.738;2022-07-23T09:52:48;31.90;36.10
53268;DHT22;39156;51.176;6.738;2022-07-23T09:55:16;31.90;35.60
53268;DHT22;39156;51.176;6.738;2022-07-23T09:57:46;31.80;35.90
53268;DHT22;39156;51.176;6.738;2022-07-23T10:00:15;31.80;35.70
53268;DHT22;39156;51.176;6.738;2022-07-23T10:02:41;31.70;35.60
53268;DHT22;39156;51.176;6.738;2022-07-23T10:05:07;31.70;35.60
53268;DHT22;39156;51.176;6.738;2022-07-23T10:07:39;31.60;35.50
53268;DHT22;39156;51.176;6.738;2022-07-23T10:10:05;31.60;35.30
53268;DHT22;39156;51.176;6.738;2022-07-23T10:12:32;31.60;35.50
53268;DHT22;39156;51.176;6.738;2022-07-23T10:15:06;31.60;35.60
53268;DHT22;39156;51.176;6.738;2022-07-23T10:17:33;31.60;35.30
53268;DHT22;39156;51.176;6.738;2022-07-23T10:19:59;31.60;34.90
53268;DHT22;39156;51.176;6.738;2022-07-23T10:22:31;31.50;35.00
53268;DHT22;39156;51.176;6.738;2022-07-23T10:31:02;30.80;35.40
53268;DHT22;39156;51.176;6.738;2022-07-23T10:36:44;30.30;35.90
53268;DHT22;39156;51.176;6.738;2022-07-23T10:42:15;29.80;35.10
53268;DHT22;39156;51.176;6.738;2022-07-23T10:44:44;29.60;35.60
53268;DHT22;39156;51.176;6.738;2022-07-23T10:47:11;29.40;35.50
53268;DHT22;39156;51.176;6.738;2022-07-23T10:53:18;28.90;36.00
53268;DHT22;39156;51.176;6.738;2022-07-23T10:55:49;28.70;36.60
53268;DHT22;39156;51.176;6.738;2022-07-23T10:58:21;28.50;36.10
53268;DHT22;39156;51.176;6.738;2022-07-23T11:00:49;28.40;35.90
53268;DHT22;39156;51.176;6.738;2022-07-23T11:03:27;28.30;36.40
53268;DHT22;39156;51.176;6.738;2022-07-23T11:05:54;28.30;37.10
53268;DHT22;39156;51.176;6.738;2022-07-23T11:08:20;28.20;36.70
53268;DHT22;39156;51.176;6.738;2022-07-23T11:11:13;28.20;36.80
53268;DHT22;39156;51.176;6.738;2022-07-23T11:13:42;28.20;37.10
53268;DHT22;39156;51.176;6.738;2022-07-23T11:16:17;28.10;37.30
53268;DHT22;39156;51.176;6.738;2022-07-23T11:32:02;28.20;38.00
53268;DHT22;39156;51.176;6.738;2022-07-23T11:36:57;28.40;37.00
53268;DHT22;39156;51.176;6.738;2022-07-23T11:39:26;28.40;36.60
53268;DHT22;39156;51.176;6.738;2022-07-23T11:41:53;28.40;37.00
53268;DHT22;39156;51.176;6.738;2022-07-23T11:44:29;28.40;36.40
53268;DHT22;39156;51.176;6.738;2022-07-23T11:47:09;28.30;36.80
53268;DHT22;39156;51.176;6.738;2022-07-23T11:49:38;28.20;36.80
53268;DHT22;39156;51.176;6.738;2022-07-23T11:52:11;28.10;37.20
53268;DHT22;39156;51.176;6.738;2022-07-23T11:54:52;28.10;36.80
53268;DHT22;39156;51.176;6.738;2022-07-23T11:57:23;28.00;36.90
53268;DHT22;39156;51.176;6.738;2022-07-23T12:00:06;28.00;36.90
53268;DHT22;39156;51.176;6.738;2022-07-23T12:02:40;27.90;37.30
53268;DHT22;39156;51.176;6.738;2022-07-23T12:05:21;27.90;36.90
53268;DHT22;39156;51.176;6.738;2022-07-23T12:07:51;27.80;37.50
53268;DHT22;39156;51.176;6.738;2022-07-23T12:10:23;27.80;37.20
53268;DHT22;39156;51.176;6.738;2022-07-23T12:12:59;27.70;37.00
53268;DHT22;39156;51.176;6.738;2022-07-23T12:15:28;27.70;37.40
53268;DHT22;39156;51.176;6.738;2022-07-23T12:17:57;27.70;37.10
53268;DHT22;39156;51.176;6.738;2022-07-23T12:20:25;27.60;37.00
53268;DHT22;39156;51.176;6.738;2022-07-23T12:22:58;27.60;37.30
53268;DHT22;39156;51.176;6.738;2022-07-23T12:25:27;27.50;37.50
53268;DHT22;39156;51.176;6.738;2022-07-23T12:28:27;27.40;37.40
53268;DHT22;39156;51.176;6.738;2022-07-23T12:30:56;27.50;37.90
53268;DHT22;39156;51.176;6.738;2022-07-23T12:33:33;27.40;37.30
53268;DHT22;39156;51.176;6.738;2022-07-23T12:36:03;27.40;37.60
53268;DHT22;39156;51.176;6.738;2022-07-23T12:38:42;27.40;38.10
53268;DHT22;39156;51.176;6.738;2022-07-23T12:41:09;27.40;37.80
53268;DHT22;39156;51.176;6.738;2022-07-23T12:43:43;27.40;37.40
53268;DHT22;39156;51.176;6.738;2022-07-23T12:46:15;27.50;37.70
53268;DHT22;39156;51.176;6.738;2022-07-23T12:51:24;27.60;37.50
53268;DHT22;39156;51.176;6.738;2022-07-23T12:53:58;27.60;37.20
53268;DHT22;39156;51.176;6.738;2022-07-23T12:56:31;27.60;37.00
53268;DHT22;39156;51.176;6.738;2022-07-23T13:01:34;27.60;37.10
53268;DHT22;39156;51.176;6.738;2022-07-23T13:06:37;27.50;37.20
53268;DHT22;39156;51.176;6.738;2022-07-23T13:09:07;27.50;37.60
53268;DHT22;39156;51.176;6.738;2022-07-23T13:11:34;27.50;37.30
53268;DHT22;39156;51.176;6.738;2022-07-23T13:14:00;27.50;37.50
53268;DHT22;39156;51.176;6.738;2022-07-23T13:16:27;27.60;38.10
53268;DHT22;39156;51.176;6.738;2022-07-23T13:18:53;27.60;37.30
53268;DHT22;39156;51.176;6.738;2022-07-23T13:21:19;27.60;37.30
53268;DHT22;39156;51.176;6.738;2022-07-23T13:23:44;27.60;37.20
53268;DHT22;39156;51.176;6.738;2022-07-23T13:26:10;27.60;37.00
53268;DHT22;39156;51.176;6.738;2022-07-23T13:28:36;27.60;37.20
53268;DHT22;39156;51.176;6.738;2022-07-23T13:31:02;27.60;37.10
53268;DHT22;39156;51.176;6.738;2022-07-23T13:33:28;27.60;37.50
53268;DHT22;39156;51.176;6.738;2022-07-23T13:35:53;27.60;37.10
53268;DHT22;39156;51.176;6.738;2022-07-23T13:38:20;27.60;36.80
53268;DHT22;39156;51.176;6.738;2022-07-23T13:40:48;27.70;37.00
53268;DHT22;39156;51.176;6.738;2022-07-23T13:43:17;27.60;36.70
53268;DHT22;39156;51.176;6.738;2022-07-23T13:45:44;27.60;36.90
53268;DHT22;39156;51.176;6.738;2022-07-23T13:48:12;27.60;36.30
53268;DHT22;39156;51.176;6.738;2022-07-23T13:50:39;27.50;36.30
53268;DHT22;39156;51.176;6.738;2022-07-23T13:53:08;27.40;36.30
53268;DHT22;39156;51.176;6.738;2022-07-23T13:55:35;27.40;36.70
53268;DHT22;39156;51.176;6.738;2022-07-23T13:58:02;27.40;36.60
53268;DHT22;39156;51.176;6.738;2022-07-23T14:00:29;27.30;36.50
53268;DHT22;39156;51.176;6.738;2022-07-23T14:02:56;27.20;36.70
53268;DHT22;39156;51.176;6.738;2022-07-23T14:05:22;27.20;37.00
53268;DHT22;39156;51.176;6.738;2022-07-23T14:07:48;27.20;37.10
53268;DHT22;39156;51.176;6.738;2022-07-23T14:10:16;27.20;37.10
53268;DHT22;39156;51.176;6.738;2022-07-23T14:12:44;27.30;37.10
53268;DHT22;39156;51.176;6.738;2022-07-23T14:15:10;27.30;37.00
53268;DHT22;39156;51.176;6.738;2022-07-23T14:17:40;27.40;37.20
53268;DHT22;39156;51.176;6.738;2022-07-23T14:20:09;27.50;36.90
53268;DHT22;39156;51.176;6.738;2022-07-23T14:22:36;27.60;37.50
53268;DHT22;39156;51.176;6.738;2022-07-23T14:25:02;27.70;37.30
53268;DHT22;39156;51.176;6.738;2022-07-23T14:27:28;27.80;37.90
53268;DHT22;39156;51.176;6.738;2022-07-23T14:29:55;27.80;37.30
53268;DHT22;39156;51.176;6.738;2022-07-23T14:32:21;27.80;37.00
53268;DHT22;39156;51.176;6.738;2022-07-23T14:34:48;27.80;36.50
53268;DHT22;39156;51.176;6.738;2022-07-23T14:37:14;27.80;36.70
53268;DHT22;39156;51.176;6.738;2022-07-23T14:39:41;27.80;36.50
53268;DHT22;39156;51.176;6.738;2022-07-23T14:42:08;27.80;36.20
53268;DHT22;39156;51.176;6.738;2022-07-23T14:44:34;27.80;36.60
53268;DHT22;39156;51.176;6.738;2022-07-23T14:47:04;27.80;36.40
53268;DHT22;39156;51.176;6.738;2022-07-23T14:49:31;27.70;36.40
53268;DHT22;39156;51.176;6.738;2022-07-23T14:51:58;27.60;36.50
53268;DHT22;39156;51.176;6.738;2022-07-23T14:54:25;27.50;36.70
53268;DHT22;39156;51.176;6.738;2022-07-23T14:56:55;27.40;36.60
53268;DHT22;39156;51.176;6.738;2022-07-23T14:59:22;27.40;36.90
53268;DHT22;39156;51.176;6.738;2022-07-23T15:01:49;27.30;36.90
53268;DHT22;39156;51.176;6.738;2022-07-23T15:04:15;27.30;37.00
53268;DHT22;39156;51.176;6.738;2022-07-23T15:06:41;27.20;37.30
53268;DHT22;39156;51.176;6.738;2022-07-23T15:09:06;27.20;37.50
53268;DHT22;39156;51.176;6.738;2022-07-23T15:11:32;27.20;37.50
53268;DHT22;39156;51.176;6.738;2022-07-23T15:14:03;27.30;38.70
53268;DHT22;39156;51.176;6.738;2022-07-23T15:16:30;27.30;37.80
53268;DHT22;39156;51.176;6.738;2022-07-23T15:18:56;27.30;37.70
53268;DHT22;39156;51.176;6.738;2022-07-23T15:21:21;27.30;37.70
53268;DHT22;39156;51.176;6.738;2022-07-23T15:23:47;27.30;37.30
53268;DHT22;39156;51.176;6.738;2022-07-23T15:26:13;27.20;37.40
53268;DHT22;39156;51.176;6.738;2022-07-23T15:28:41;27.20;37.50
53268;DHT22;39156;51.176;6.738;2022-07-23T15:31:07;27.20;37.50
53268;DHT22;39156;51.176;6.738;2022-07-23T15:33:33;27.20;37.50
53268;DHT22;39156;51.176;6.738;2022-07-23T15:35:58;27.20;37.70
53268;DHT22;39156;51.176;6.738;2022-07-23T15:38:26;27.10;37.40
53268;DHT22;39156;51.176;6.738;2022-07-23T15:40:55;27.00;37.60
53268;DHT22;39156;51.176;6.738;2022-07-23T15:43:23;26.90;37.90
53268;DHT22;39156;51.176;6.738;2022-07-23T15:45:50;26.80;38.20
53268;DHT22;39156;51.176;6.738;2022-07-23T15:48:18;26.80;38.00
53268;DHT22;39156;51.176;6.738;2022-07-23T15:50:44;26.70;38.00
53268;DHT22;39156;51.176;6.738;2022-07-23T15:53:10;26.70;38.40
53268;DHT22;39156;51.176;6.738;2022-07-23T15:55:36;26.70;38.40
53268;DHT22;39156;51.176;6.738;2022-07-23T15:58:03;26.70;38.40
53268;DHT22;39156;51.176;6.738;2022-07-23T16:00:29;26.60;38.30
53268;DHT22;39156;51.176;6.738;2022-07-23T16:02:55;26.70;38.30
53268;DHT22;39156;51.176;6.738;2022-07-23T16:05:20;26.60;38.00
53268;DHT22;39156;51.176;6.738;2022-07-23T16:08:00;26.70;38.10
53268;DHT22;39156;51.176;6.738;2022-07-23T16:10:27;26.70;38.00
53268;DHT22;39156;51.176;6.738;2022-07-23T16:12:53;26.70;38.10
53268;DHT22;39156;51.176;6.738;2022-07-23T16:15:18;26.80;38.20
53268;DHT22;39156;51.176;6.738;2022-07-23T16:17:44;26.80;38.10
53268;DHT22;39156;51.176;6.738;2022-07-23T16:20:11;26.80;38.10
53268;DHT22;39156;51.176;6.738;2022-07-23T16:22:37;26.80;37.90
53268;DHT22;39156;51.176;6.738;2022-07-23T16:25:05;26.80;37.70
53268;DHT22;39156;51.176;6.738;2022-07-23T16:27:33;26.70;37.70